Time;durP1;ratioP1;P1;durP2;ratioP2;P2;SDS_P1;SDS_P2;PMS_P1;PMS_P2;Temp;Humidity;BMP_temperature;BMP_pressure;BME280_temperature;BME280_humidity;BME280_pressure;Samples;Min_cycle;Max_cycle;Signal;HPM_P1;HPM_P2
2023/06/10 00:02:23;;;;;;;12.20;7.20;;;18.30;99.90;;;;;;4865654;29;20417;-79
2023/06/10 00:04:51;;;;;;;11.73;6.60;;;18.20;99.90;;;;;;4866380;29;20056;-79
2023/06/10 00:07:18;;;;;;;12.88;7.50;;;18.30;99.90;;;;;;4849075;29;20523;-79
2023/06/10 00:09:45;;;;;;;13.02;7.35;;;18.20;99.90;;;;;;4850553;29;20299;-79
2023/06/10 00:12:12;;;;;;;13.45;7.63;;;18.20;99.90;;;;;;4869080;29;20062;-79
2023/06/10 00:14:42;;;;;;;12.52;8.23;;;18.20;99.90;;;;;;4879919;29;20056;-79
2023/06/10 00:17:09;;;;;;;13.80;7.53;;;18.20;99.90;;;;;;4853325;29;20049;-79
2023/06/10 00:19:41;;;;;;;14.63;8.00;;;18.20;99.90;;;;;;4853012;29;20048;-79
2023/06/10 00:22:11;;;;;;;12.50;8.82;;;18.20;99.90;;;;;;4868845;29;20057;-79
2023/06/10 00:24:39;;;;;;;16.45;9.88;;;18.20;99.90;;;;;;4857736;29;20483;-79
2023/06/10 00:27:06;;;;;;;15.00;8.30;;;18.20;99.90;;;;;;4868324;29;20052;-79
2023/06/10 00:29:34;;;;;;;14.40;8.25;;;18.20;99.90;;;;;;4861142;29;20056;-79
2023/06/10 00:32:02;;;;;;;14.30;8.73;;;18.20;99.90;;;;;;4852221;29;20459;-79
2023/06/10 00:34:29;;;;;;;14.02;9.18;;;18.20;99.90;;;;;;4834609;29;20648;-79
2023/06/10 00:36:58;;;;;;;15.60;8.65;;;18.10;99.90;;;;;;4854814;29;20056;-79
2023/06/10 00:39:25;;;;;;;16.63;8.90;;;18.10;99.90;;;;;;4872902;29;20056;-79
2023/06/10 00:41:52;;;;;;;18.77;9.23;;;18.10;99.90;;;;;;4860865;29;20143;-79
2023/06/10 00:44:19;;;;;;;16.15;9.00;;;18.10;99.90;;;;;;4869590;29;20162;-79
2023/06/10 00:46:46;;;;;;;14.38;8.65;;;18.10;99.90;;;;;;4874281;29;20051;-79
2023/06/10 00:49:15;;;;;;;13.55;8.68;;;18.10;99.90;;;;;;4878204;29;22759;-79
2023/06/10 00:51:42;;;;;;;15.98;8.32;;;18.10;99.90;;;;;;4887357;29;20052;-79
2023/06/10 00:54:13;;;;;;;15.50;8.68;;;18.10;99.90;;;;;;4884854;29;20040;-79
2023/06/10 00:56:42;;;;;;;17.10;9.13;;;18.10;99.90;;;;;;4903667;29;20060;-79
2023/06/10 00:59:10;;;;;;;14.93;9.43;;;18.10;99.90;;;;;;4885899;29;20056;-79
2023/06/10 01:01:38;;;;;;;15.15;8.90;;;18.10;99.90;;;;;;4900464;29;20173;-79
2023/06/10 01:04:05;;;;;;;16.40;9.13;;;18.10;99.90;;;;;;4872489;29;20067;-79
2023/06/10 01:06:50;;;;;;;13.80;7.93;;;18.10;99.90;;;;;;4892985;29;20052;-79
2023/06/10 01:09:45;;;;;;;16.13;8.80;;;18.10;99.90;;;;;;4884113;29;20066;-79
2023/06/10 01:12:19;;;;;;;15.27;9.32;;;18.10;99.90;;;;;;4878275;29;20073;-79
2023/06/10 01:14:48;;;;;;;14.65;8.82;;;18.10;99.90;;;;;;4905174;29;20044;-79
2023/06/10 01:17:16;;;;;;;16.05;8.40;;;18.10;99.90;;;;;;4888303;29;21046;-79
2023/06/10 01:19:44;;;;;;;15.57;8.70;;;18.10;99.90;;;;;;4891542;29;20103;-79
2023/06/10 01:22:15;;;;;;;21.70;9.27;;;18.10;99.90;;;;;;4899037;29;20049;-79
2023/06/10 01:24:43;;;;;;;15.02;8.82;;;18.20;99.90;;;;;;4899071;29;20084;-79
2023/06/10 01:27:15;;;;;;;15.55;8.38;;;18.20;99.90;;;;;;4893309;29;20865;-79
2023/06/10 01:29:52;;;;;;;16.95;9.40;;;18.20;99.90;;;;;;4886000;29;20079;-79
2023/06/10 01:32:47;;;;;;;14.00;8.05;;;18.20;99.90;;;;;;4891520;29;20051;-79
2023/06/10 01:35:15;;;;;;;15.13;7.80;;;18.20;99.90;;;;;;4891399;29;20131;-79
2023/06/10 01:37:46;;;;;;;15.88;8.60;;;18.20;99.90;;;;;;4887824;29;20151;-79
2023/06/10 01:40:15;;;;;;;14.25;8.73;;;18.10;99.90;;;;;;4880260;29;20060;-79
2023/06/10 01:42:42;;;;;;;14.40;8.82;;;18.10;99.90;;;;;;4887239;29;20061;-79
2023/06/10 01:45:09;;;;;;;15.50;9.57;;;18.10;99.90;;;;;;4897576;29;22753;-79
2023/06/10 01:47:37;;;;;;;13.80;8.13;;;18.10;99.90;;;;;;4884692;29;20044;-79
2023/06/10 01:50:05;;;;;;;18.80;10.07;;;18.10;99.90;;;;;;4875055;29;20083;-79
2023/06/10 01:52:32;;;;;;;16.88;8.68;;;18.10;99.90;;;;;;4884712;29;20056;-79
2023/06/10 01:55:00;;;;;;;16.27;9.25;;;18.10;99.90;;;;;;4883128;29;20044;-79
2023/06/10 01:57:27;;;;;;;17.35;9.68;;;18.10;99.90;;;;;;4877239;29;20104;-79
2023/06/10 01:59:54;;;;;;;15.88;9.13;;;18.10;99.90;;;;;;4871568;29;20143;-79
2023/06/10 02:02:22;;;;;;;13.95;8.20;;;18.10;99.90;;;;;;4891202;29;20178;-79
2023/06/10 02:04:49;;;;;;;14.35;7.60;;;18.10;99.90;;;;;;4901661;29;20062;-79
2023/06/10 02:07:18;;;;;;;17.27;9.25;;;18.10;99.90;;;;;;4882332;29;20056;-79
2023/06/10 02:09:45;;;;;;;14.90;8.80;;;18.10;99.90;;;;;;4892017;29;21917;-79
2023/06/10 02:12:12;;;;;;;14.77;8.23;;;18.10;99.90;;;;;;4881173;29;20081;-79
2023/06/10 02:14:43;;;;;;;13.55;7.30;;;18.10;99.90;;;;;;4888313;29;20052;-79
2023/06/10 02:17:12;;;;;;;13.48;8.27;;;18.10;99.90;;;;;;4903718;29;20116;-79
2023/06/10 02:19:42;;;;;;;17.83;8.25;;;18.10;99.90;;;;;;4901461;29;20604;-79
2023/06/10 02:22:10;;;;;;;16.35;8.77;;;18.10;99.90;;;;;;4904076;29;20048;-79
2023/06/10 02:24:37;;;;;;;15.13;8.75;;;18.10;99.90;;;;;;4892517;29;20091;-79
2023/06/10 02:27:06;;;;;;;16.73;8.65;;;18.10;99.90;;;;;;4883164;29;20100;-79
2023/06/10 02:29:35;;;;;;;19.80;9.35;;;18.00;99.90;;;;;;4892525;29;20091;-79
2023/06/10 02:32:03;;;;;;;16.17;7.90;;;18.00;99.90;;;;;;4886207;29;20157;-79
2023/06/10 02:34:30;;;;;;;13.82;7.25;;;18.00;99.90;;;;;;4884346;29;20056;-79
2023/06/10 02:36:59;;;;;;;14.80;7.95;;;18.00;99.90;;;;;;4900169;29;20598;-79
2023/06/10 02:39:28;;;;;;;15.40;8.40;;;18.00;99.90;;;;;;4894437;29;20496;-79
2023/06/10 02:41:55;;;;;;;12.27;6.88;;;18.00;99.90;;;;;;4902927;29;20163;-79
2023/06/10 02:44:22;;;;;;;15.15;7.53;;;18.00;99.90;;;;;;4885546;29;20049;-79
2023/06/10 02:46:50;;;;;;;12.85;6.85;;;18.00;99.90;;;;;;4882372;29;20040;-79
2023/06/10 02:49:18;;;;;;;12.20;7.03;;;18.00;99.90;;;;;;4898271;29;20048;-79
2023/06/10 02:51:48;;;;;;;12.98;7.20;;;17.90;99.90;;;;;;4889999;29;22719;-79
2023/06/10 02:54:16;;;;;;;11.40;6.45;;;17.90;99.90;;;;;;4881415;29;20184;-79
2023/06/10 02:56:44;;;;;;;11.85;6.93;;;17.90;99.90;;;;;;4874932;29;20603;-79
2023/06/10 02:59:18;;;;;;;10.93;7.18;;;17.90;99.90;;;;;;4875782;29;20131;-79
2023/06/10 03:01:46;;;;;;;14.13;6.65;;;17.90;99.90;;;;;;4887801;29;20123;-79
2023/06/10 03:04:14;;;;;;;11.48;6.63;;;17.90;99.90;;;;;;4880672;29;20166;-79
2023/06/10 03:06:49;;;;;;;11.48;7.15;;;17.80;99.90;;;;;;4891551;29;20617;-79
2023/06/10 03:09:24;;;;;;;14.18;6.93;;;17.80;99.90;;;;;;4892533;29;20053;-79
2023/06/10 03:11:56;;;;;;;11.02;6.57;;;17.80;99.90;;;;;;4884333;29;20056;-79
2023/06/10 03:14:25;;;;;;;11.43;6.63;;;17.80;99.90;;;;;;4886540;29;20056;-79
2023/06/10 03:16:53;;;;;;;11.52;6.60;;;17.80;99.90;;;;;;4890640;29;21030;-79
2023/06/10 03:19:23;;;;;;;13.45;7.95;;;17.90;99.90;;;;;;4878573;29;22769;-79
2023/06/10 03:22:08;;;;;;;11.02;6.65;;;17.90;99.90;;;;;;4879142;29;20104;-79
2023/06/10 03:24:39;;;;;;;16.50;6.90;;;17.80;99.90;;;;;;4878266;29;20077;-79
2023/06/10 03:27:13;;;;;;;12.77;7.10;;;17.70;99.90;;;;;;4890581;29;20720;-79
2023/06/10 03:29:42;;;;;;;11.50;6.78;;;17.80;99.90;;;;;;4894113;29;20084;-79
2023/06/10 03:32:10;;;;;;;13.05;7.03;;;17.80;99.90;;;;;;4888305;29;20052;-79
2023/06/10 03:34:40;;;;;;;12.05;6.85;;;17.70;99.90;;;;;;4888660;29;20105;-79
2023/06/10 03:37:07;;;;;;;10.52;6.40;;;17.70;99.90;;;;;;4891594;29;20104;-79
2023/06/10 03:39:35;;;;;;;11.73;6.60;;;17.80;99.90;;;;;;4894967;29;20049;-79
2023/06/10 03:42:02;;;;;;;10.70;6.15;;;17.80;99.90;;;;;;4883577;29;20101;-79
2023/06/10 03:44:31;;;;;;;12.57;6.65;;;17.80;99.90;;;;;;4886083;29;20055;-79
2023/06/10 03:46:59;;;;;;;12.88;6.53;;;17.70;99.90;;;;;;4900584;29;20048;-79
2023/06/10 03:49:29;;;;;;;10.30;6.47;;;17.80;99.90;;;;;;4892823;29;20041;-79
2023/06/10 03:51:59;;;;;;;12.25;6.60;;;17.80;99.90;;;;;;4902888;29;20078;-80
2023/06/10 03:54:27;;;;;;;10.93;6.63;;;17.70;99.90;;;;;;4887494;29;20047;-79
2023/06/10 03:56:54;;;;;;;11.45;6.10;;;17.70;99.90;;;;;;4891851;29;20075;-79
2023/06/10 03:59:21;;;;;;;11.40;6.78;;;17.70;99.90;;;;;;4870595;29;20044;-79
2023/06/10 04:01:49;;;;;;;10.15;6.95;;;17.70;99.90;;;;;;4894424;29;20516;-79
2023/06/10 04:04:16;;;;;;;9.40;6.47;;;17.80;99.90;;;;;;4895904;29;20051;-79
2023/06/10 04:06:44;;;;;;;14.02;6.75;;;17.90;99.90;;;;;;4884571;29;20064;-80
2023/06/10 04:09:12;;;;;;;10.45;6.30;;;17.90;99.90;;;;;;4885695;29;20401;-79
2023/06/10 04:11:39;;;;;;;9.93;5.25;;;17.90;99.90;;;;;;4899496;29;20052;-80
2023/06/10 04:14:08;;;;;;;8.57;5.55;;;17.90;99.90;;;;;;4885224;29;20131;-79
2023/06/10 04:16:36;;;;;;;9.20;5.70;;;17.90;99.90;;;;;;4884333;29;20044;-79
2023/06/10 04:19:03;;;;;;;8.88;4.80;;;17.90;99.90;;;;;;4884573;29;20045;-79
2023/06/10 04:21:30;;;;;;;8.30;5.45;;;17.90;99.90;;;;;;4903295;29;20060;-79
2023/06/10 04:23:58;;;;;;;11.85;5.50;;;17.90;99.90;;;;;;4898139;29;20401;-79
2023/06/10 04:26:25;;;;;;;8.27;5.57;;;17.90;99.90;;;;;;4889347;29;20452;-80
2023/06/10 04:28:53;;;;;;;9.32;5.68;;;18.00;99.90;;;;;;4873466;29;20068;-79
2023/06/10 04:31:20;;;;;;;9.77;5.30;;;17.80;99.90;;;;;;4895630;29;20068;-79
2023/06/10 04:33:48;;;;;;;8.95;5.70;;;17.80;99.90;;;;;;4885239;29;20176;-79
2023/06/10 04:36:15;;;;;;;9.43;5.30;;;17.90;99.90;;;;;;4904256;29;20060;-79
2023/06/10 04:38:42;;;;;;;8.82;4.85;;;17.90;99.90;;;;;;4879484;29;20061;-79
2023/06/10 04:41:10;;;;;;;8.43;5.20;;;17.90;99.90;;;;;;4904380;29;24239;-79
2023/06/10 04:43:37;;;;;;;8.65;5.35;;;17.70;99.90;;;;;;4893952;29;20053;-80
2023/06/10 04:46:04;;;;;;;8.35;5.40;;;17.90;99.90;;;;;;4881718;29;20053;-79
2023/06/10 04:48:35;;;;;;;7.07;4.53;;;17.90;99.90;;;;;;4894030;29;20927;-79
2023/06/10 04:51:05;;;;;;;7.05;4.68;;;18.00;99.90;;;;;;4893200;29;20083;-79
2023/06/10 04:53:32;;;;;;;8.18;4.25;;;18.10;99.90;;;;;;4902743;29;20052;-79
2023/06/10 04:55:59;;;;;;;7.28;4.63;;;18.20;99.90;;;;;;4892016;29;20052;-80
2023/06/10 04:58:26;;;;;;;8.32;5.00;;;18.30;99.90;;;;;;4884495;29;20049;-79
2023/06/10 05:00:53;;;;;;;7.75;5.30;;;18.40;99.90;;;;;;4898879;29;22842;-79
2023/06/10 05:03:20;;;;;;;8.65;5.20;;;18.40;99.90;;;;;;4885758;29;20095;-79
2023/06/10 05:05:48;;;;;;;8.95;5.10;;;18.40;99.90;;;;;;4900804;29;20037;-79
2023/06/10 05:08:15;;;;;;;8.82;5.20;;;18.40;99.90;;;;;;4875574;29;22951;-80
2023/06/10 05:10:42;;;;;;;8.88;5.43;;;18.40;99.90;;;;;;4901663;29;20059;-79
2023/06/10 05:13:09;;;;;;;9.52;5.43;;;18.50;99.90;;;;;;4901018;29;20052;-79
2023/06/10 05:15:37;;;;;;;6.82;4.90;;;18.50;99.90;;;;;;4886826;29;20103;-79
2023/06/10 05:18:04;;;;;;;9.38;5.15;;;18.50;99.90;;;;;;4879542;29;20080;-79
2023/06/10 05:20:31;;;;;;;7.88;4.53;;;18.60;99.90;;;;;;4894989;29;20051;-79
2023/06/10 05:22:58;;;;;;;10.32;5.78;;;18.70;99.90;;;;;;4882068;29;20056;-79
2023/06/10 05:25:29;;;;;;;10.98;5.15;;;18.80;99.90;;;;;;4874291;29;20138;-79
2023/06/10 05:27:57;;;;;;;10.48;5.50;;;19.00;99.90;;;;;;4882708;29;20418;-79
2023/06/10 05:30:25;;;;;;;9.15;5.38;;;18.90;99.90;;;;;;4879617;29;20059;-79
2023/06/10 05:32:56;;;;;;;8.55;5.30;;;19.10;99.90;;;;;;4892635;29;22879;-79
2023/06/10 05:35:23;;;;;;;8.70;4.82;;;19.10;99.90;;;;;;4891936;29;20049;-79
2023/06/10 05:37:50;;;;;;;8.27;4.97;;;18.90;99.90;;;;;;4885787;29;20146;-79
2023/06/10 05:40:17;;;;;;;8.45;5.38;;;18.90;99.90;;;;;;4877159;29;20077;-79
2023/06/10 05:42:44;;;;;;;8.82;5.25;;;19.00;99.90;;;;;;4902449;29;20079;-79
2023/06/10 05:45:11;;;;;;;8.50;5.57;;;19.00;99.90;;;;;;4874591;29;20075;-79
2023/06/10 05:47:39;;;;;;;7.35;4.93;;;18.90;99.90;;;;;;4889675;29;20051;-79
2023/06/10 05:50:08;;;;;;;12.77;6.40;;;18.90;99.90;;;;;;4885527;29;20051;-79
2023/06/10 05:52:36;;;;;;;8.95;5.55;;;18.90;99.90;;;;;;4885160;29;20057;-79
2023/06/10 05:55:03;;;;;;;7.95;5.85;;;18.90;99.90;;;;;;4885931;29;20474;-79
2023/06/10 05:57:30;;;;;;;10.52;6.75;;;18.90;99.90;;;;;;4899700;29;20070;-77
2023/06/10 05:59:58;;;;;;;8.90;6.53;;;18.90;99.90;;;;;;4900273;29;20044;-79
2023/06/10 06:02:25;;;;;;;10.50;6.85;;;18.90;99.90;;;;;;4884889;29;20052;-79
2023/06/10 06:04:52;;;;;;;9.40;5.93;;;19.10;99.90;;;;;;4890091;29;22970;-79
2023/06/10 06:07:20;;;;;;;10.23;6.85;;;19.40;99.90;;;;;;4890402;29;21125;-79
2023/06/10 06:09:48;;;;;;;9.40;6.50;;;19.60;99.90;;;;;;4880702;29;20044;-79
2023/06/10 06:12:15;;;;;;;9.75;6.25;;;19.50;99.90;;;;;;4886655;29;20831;-79
2023/06/10 06:14:42;;;;;;;10.02;6.40;;;19.40;99.90;;;;;;4891536;29;20131;-79
2023/06/10 06:17:09;;;;;;;9.65;5.53;;;19.40;99.90;;;;;;4878079;29;20052;-79
2023/06/10 06:19:36;;;;;;;10.02;6.35;;;19.40;99.90;;;;;;4872693;29;20045;-80
2023/06/10 06:22:04;;;;;;;12.35;7.00;;;19.40;99.90;;;;;;4881289;29;20130;-79
2023/06/10 06:24:31;;;;;;;13.23;7.65;;;19.40;99.90;;;;;;4897955;29;20052;-79
2023/06/10 06:26:58;;;;;;;14.40;8.25;;;19.40;99.90;;;;;;4888842;29;20100;-79
2023/06/10 06:29:26;;;;;;;13.55;8.32;;;19.40;99.90;;;;;;4888120;29;20160;-80
2023/06/10 06:31:53;;;;;;;13.52;8.15;;;19.30;99.90;;;;;;4873527;29;20508;-79
2023/06/10 06:34:21;;;;;;;15.88;8.88;;;19.20;99.90;;;;;;4890183;29;20044;-79
2023/06/10 06:36:48;;;;;;;11.50;7.28;;;19.20;99.90;;;;;;4875019;29;20040;-80
2023/06/10 06:39:16;;;;;;;14.13;8.50;;;19.10;99.90;;;;;;4884087;29;20836;-79
2023/06/10 06:41:44;;;;;;;13.70;8.50;;;19.10;99.90;;;;;;4888524;29;20044;-79
2023/06/10 06:44:12;;;;;;;15.32;9.00;;;19.10;99.90;;;;;;4899490;29;20052;-79
2023/06/10 06:46:43;;;;;;;16.52;9.57;;;19.20;99.90;;;;;;4902470;29;20501;-79
2023/06/10 06:49:10;;;;;;;18.38;10.43;;;19.20;99.90;;;;;;4895071;29;20054;-79
2023/06/10 06:51:37;;;;;;;20.67;12.07;;;19.30;99.90;;;;;;4887270;29;20097;-79
2023/06/10 06:54:05;;;;;;;18.38;11.75;;;19.30;99.90;;;;;;4867783;29;20082;-79
2023/06/10 06:56:32;;;;;;;21.58;11.85;;;19.30;99.90;;;;;;4897740;29;20381;-79
2023/06/10 06:59:00;;;;;;;21.73;12.48;;;19.50;99.90;;;;;;4885059;29;20131;-79
2023/06/10 07:01:27;;;;;;;17.65;11.20;;;19.50;99.90;;;;;;4893785;29;21964;-79
2023/06/10 07:03:54;;;;;;;25.88;11.68;;;19.60;99.90;;;;;;4874665;29;20056;-79
2023/06/10 07:06:21;;;;;;;19.90;10.95;;;19.90;99.90;;;;;;4887286;29;20139;-79
2023/06/10 07:08:50;;;;;;;18.90;10.45;;;20.20;99.90;;;;;;4884473;29;20049;-79
2023/06/10 07:11:17;;;;;;;20.27;11.20;;;20.50;99.90;;;;;;4887201;29;20155;-79
2023/06/10 07:13:44;;;;;;;20.42;10.70;;;20.90;99.90;;;;;;4893821;29;20120;-79
2023/06/10 07:16:11;;;;;;;16.52;9.57;;;21.30;99.90;;;;;;4888553;29;20049;-79
2023/06/10 07:18:39;;;;;;;19.83;11.32;;;21.20;99.90;;;;;;4898982;29;20052;-79
2023/06/10 07:21:06;;;;;;;16.08;10.43;;;21.20;99.90;;;;;;4874650;29;20159;-79
2023/06/10 07:23:33;;;;;;;17.38;10.73;;;20.90;99.90;;;;;;4884471;29;20107;-79
2023/06/10 07:26:00;;;;;;;19.23;10.27;;;21.20;99.90;;;;;;4892699;29;20055;-79
2023/06/10 07:28:27;;;;;;;16.50;11.27;;;21.50;99.90;;;;;;4885077;29;20096;-80
2023/06/10 07:30:54;;;;;;;17.48;10.10;;;21.70;99.90;;;;;;4898582;29;20067;-79
2023/06/10 07:33:21;;;;;;;16.30;9.65;;;21.20;99.90;;;;;;4877786;29;20039;-80
2023/06/10 07:35:49;;;;;;;18.38;10.52;;;21.20;99.90;;;;;;4871579;29;20393;-80
2023/06/10 07:38:17;;;;;;;17.13;10.73;;;21.10;99.90;;;;;;4886063;29;20124;-80
2023/06/10 07:40:45;;;;;;;15.05;9.73;;;21.10;99.90;;;;;;4886877;29;21045;-80
2023/06/10 07:43:12;;;;;;;15.35;9.43;;;21.00;99.90;;;;;;4873418;29;20060;-80
2023/06/10 07:45:41;;;;;;;14.73;10.27;;;21.10;99.90;;;;;;4879876;29;20048;-80
2023/06/10 07:48:08;;;;;;;13.23;8.20;;;20.80;99.90;;;;;;4851271;29;20053;-79
2023/06/10 07:50:35;;;;;;;18.05;10.55;;;20.90;99.90;;;;;;4850281;29;20053;-80
2023/06/10 07:53:03;;;;;;;15.48;8.88;;;20.90;99.90;;;;;;4835264;29;20055;-79
2023/06/10 07:55:30;;;;;;;16.33;10.35;;;20.90;99.90;;;;;;4848367;29;20404;-80
2023/06/10 07:57:57;;;;;;;16.95;9.75;;;20.90;99.90;;;;;;4849265;29;20118;-80
2023/06/10 08:00:24;;;;;;;16.23;9.65;;;20.90;99.90;;;;;;4855575;29;20048;-80
2023/06/10 08:02:51;;;;;;;16.02;9.88;;;20.80;99.90;;;;;;4851163;29;20060;-80
2023/06/10 08:05:20;;;;;;;17.60;9.70;;;20.90;99.90;;;;;;4846659;29;20142;-79
2023/06/10 08:07:47;;;;;;;15.25;10.02;;;21.00;99.90;;;;;;4851082;29;20080;-80
2023/06/10 08:10:14;;;;;;;15.43;9.55;;;21.00;99.90;;;;;;4867440;29;20052;-80
2023/06/10 08:12:41;;;;;;;15.07;9.65;;;21.10;99.90;;;;;;4875410;29;20875;-78
2023/06/10 08:15:09;;;;;;;15.40;9.40;;;21.00;99.90;;;;;;4866792;29;20056;-78
2023/06/10 08:17:38;;;;;;;14.75;8.57;;;21.10;99.90;;;;;;4862423;29;20419;-78
2023/06/10 08:20:06;;;;;;;15.98;8.65;;;21.20;99.90;;;;;;4872739;29;20189;-77
2023/06/10 08:22:33;;;;;;;15.63;9.98;;;21.30;99.90;;;;;;4839735;29;20040;-77
2023/06/10 08:25:00;;;;;;;16.45;10.38;;;21.40;99.90;;;;;;4855239;29;20564;-78
2023/06/10 08:27:27;;;;;;;18.02;9.18;;;21.60;99.90;;;;;;4867418;29;20175;-76
2023/06/10 08:29:55;;;;;;;17.38;10.55;;;21.60;99.90;;;;;;4851785;29;20051;-78
2023/06/10 08:32:22;;;;;;;17.38;9.93;;;21.70;99.90;;;;;;4875316;29;20131;-77
2023/06/10 08:34:49;;;;;;;16.67;10.43;;;21.80;99.90;;;;;;4853899;29;20156;-77
2023/06/10 08:37:16;;;;;;;18.80;10.15;;;21.70;99.90;;;;;;4865106;29;20131;-78
2023/06/10 08:39:43;;;;;;;16.55;9.57;;;21.90;99.90;;;;;;4833077;29;20055;-78
2023/06/10 08:42:33;;;;;;;18.48;10.50;;;21.90;99.90;;;;;;4853157;29;20048;-77
2023/06/10 08:45:02;;;;;;;19.40;9.77;;;21.90;99.90;;;;;;4864239;29;20176;-77
2023/06/10 08:47:35;;;;;;;18.65;10.60;;;22.00;99.90;;;;;;4852432;29;20052;-78
2023/06/10 08:50:04;;;;;;;19.23;10.48;;;22.10;99.90;;;;;;4834061;29;20059;-77
2023/06/10 08:52:37;;;;;;;18.90;11.95;;;22.10;99.90;;;;;;4852736;29;20041;-78
2023/06/10 08:55:08;;;;;;;20.02;10.38;;;22.20;99.90;;;;;;4851193;29;20459;-76
2023/06/10 08:57:36;;;;;;;18.92;10.93;;;22.00;99.90;;;;;;4867704;29;20055;-78
2023/06/10 09:00:05;;;;;;;17.55;10.60;;;21.80;99.90;;;;;;4838874;29;20044;-78
2023/06/10 09:02:35;;;;;;;18.67;11.60;;;21.70;99.90;;;;;;4845003;29;20052;-77
2023/06/10 09:05:02;;;;;;;20.10;12.35;;;21.50;99.90;;;;;;4857087;29;20389;-77
2023/06/10 09:07:35;;;;;;;19.02;11.10;;;21.40;99.90;;;;;;4841174;29;20044;-78
2023/06/10 09:10:06;;;;;;;18.65;11.38;;;21.40;99.90;;;;;;4848365;29;20620;-78
2023/06/10 09:12:35;;;;;;;19.02;11.25;;;21.30;99.90;;;;;;4849844;29;20408;-77
2023/06/10 09:15:02;;;;;;;19.45;11.60;;;21.30;99.90;;;;;;4866329;29;20056;-77
2023/06/10 09:17:30;;;;;;;18.48;11.93;;;21.20;99.90;;;;;;4854121;29;20115;-77
2023/06/10 09:19:59;;;;;;;22.67;13.80;;;21.20;99.90;;;;;;4868816;29;20055;-77
2023/06/10 09:22:26;;;;;;;20.13;13.40;;;21.20;99.90;;;;;;4838269;29;20147;-77
2023/06/10 09:25:13;;;;;;;20.17;12.88;;;21.10;99.90;;;;;;4882742;29;20087;-77
2023/06/10 09:27:50;;;;;;;18.27;12.73;;;21.10;99.90;;;;;;4863149;29;22755;-77
2023/06/10 09:30:43;;;;;;;19.58;12.55;;;21.10;99.90;;;;;;4851997;29;20048;-76
2023/06/10 09:33:15;;;;;;;18.85;12.07;;;21.00;99.90;;;;;;4846517;29;23045;-77
2023/06/10 09:35:49;;;;;;;18.07;12.20;;;21.00;99.90;;;;;;4858480;29;20053;-77
2023/06/10 09:38:21;;;;;;;16.13;11.48;;;21.10;99.90;;;;;;4882765;29;20055;-77
2023/06/10 09:40:50;;;;;;;18.42;12.65;;;21.10;99.90;;;;;;4850901;29;20943;-77
2023/06/10 09:43:18;;;;;;;17.65;13.35;;;21.10;99.90;;;;;;4865443;29;20052;-77
2023/06/10 09:45:53;;;;;;;17.85;12.73;;;21.10;99.90;;;;;;4856457;29;20516;-77
2023/06/10 09:48:22;;;;;;;17.30;13.25;;;21.10;99.90;;;;;;4856977;29;20127;-77
2023/06/10 09:50:49;;;;;;;17.38;13.15;;;21.10;99.90;;;;;;4866124;29;20055;-77
2023/06/10 09:53:18;;;;;;;17.45;12.70;;;21.20;99.90;;;;;;4857697;29;20044;-77
2023/06/10 09:55:45;;;;;;;18.73;13.60;;;21.20;99.90;;;;;;4864456;29;20044;-77
2023/06/10 09:58:12;;;;;;;18.60;13.32;;;21.20;99.90;;;;;;4855931;29;20060;-77
2023/06/10 10:00:39;;;;;;;17.70;14.10;;;21.20;99.90;;;;;;4841419;29;20056;-77
2023/06/10 10:03:06;;;;;;;18.83;13.20;;;21.30;99.90;;;;;;4847383;29;20263;-77
2023/06/10 10:05:34;;;;;;;18.83;13.80;;;21.60;99.90;;;;;;4878578;29;20135;-76
2023/06/10 10:08:01;;;;;;;19.00;13.02;;;21.70;99.90;;;;;;4849140;29;20401;-77
2023/06/10 10:10:28;;;;;;;15.95;12.43;;;21.60;99.90;;;;;;4868623;29;20055;-77
2023/06/10 10:12:56;;;;;;;17.85;12.90;;;21.60;99.90;;;;;;4853582;29;20087;-77
2023/06/10 10:15:29;;;;;;;17.55;11.88;;;21.70;99.90;;;;;;4831341;29;20178;-77
2023/06/10 10:18:03;;;;;;;13.10;9.43;;;21.90;99.90;;;;;;4827287;29;20056;-76
2023/06/10 10:20:33;;;;;;;12.25;8.60;;;22.20;99.90;;;;;;4847052;29;20499;-77
2023/06/10 10:23:04;;;;;;;12.38;9.27;;;22.20;99.90;;;;;;4826335;29;20045;-77
2023/06/10 10:25:38;;;;;;;12.38;9.07;;;22.20;99.90;;;;;;4846806;29;20041;-77
2023/06/10 10:28:12;;;;;;;9.80;7.80;;;22.10;99.90;;;;;;4843228;29;20774;-76
2023/06/10 10:30:46;;;;;;;8.52;6.22;;;22.40;99.90;;;;;;4827960;29;20274;-74
2023/06/10 10:33:28;;;;;;;7.05;4.68;;;22.50;99.90;;;;;;4850985;29;20439;-78
2023/06/10 10:35:56;;;;;;;6.53;4.85;;;22.40;99.90;;;;;;4850838;29;20417;-78
2023/06/10 10:38:23;;;;;;;6.28;4.10;;;22.70;99.90;;;;;;4854732;29;20410;-75
2023/06/10 10:40:52;;;;;;;4.72;3.85;;;22.90;98.60;;;;;;4838385;29;20057;-77
2023/06/10 10:43:19;;;;;;;4.97;3.65;;;23.10;97.10;;;;;;4860106;29;20087;-76
2023/06/10 10:46:01;;;;;;;4.60;3.92;;;23.30;98.70;;;;;;4847969;29;20200;-76
2023/06/10 10:48:37;;;;;;;3.95;3.13;;;23.20;97.60;;;;;;4829204;29;20049;-76
2023/06/10 10:51:04;;;;;;;3.03;2.65;;;23.20;97.70;;;;;;4849333;29;20045;-76
2023/06/10 10:53:31;;;;;;;3.05;2.40;;;23.20;97.80;;;;;;4854508;29;20064;-77
2023/06/10 10:56:12;;;;;;;3.45;2.60;;;23.30;96.80;;;;;;4839164;29;20413;-76
2023/06/10 10:58:40;;;;;;;3.28;2.10;;;23.20;97.30;;;;;;4850570;29;22403;-76
2023/06/10 11:01:15;;;;;;;3.25;2.95;;;23.00;97.50;;;;;;4849003;29;20052;-75
2023/06/10 11:03:45;;;;;;;3.25;2.95;;;22.90;98.10;;;;;;4848421;29;20459;-77
2023/06/10 11:06:14;;;;;;;4.60;3.30;;;22.80;98.50;;;;;;4843724;29;20055;-75
2023/06/10 11:08:41;;;;;;;6.28;4.22;;;22.80;98.50;;;;;;4841142;29;20421;-78
2023/06/10 11:11:25;;;;;;;5.38;3.85;;;22.80;99.40;;;;;;4889281;29;20453;-77
2023/06/10 11:14:04;;;;;;;6.30;4.00;;;22.70;99.40;;;;;;4883704;29;20051;-79
2023/06/10 11:16:41;;;;;;;5.28;3.75;;;22.60;98.40;;;;;;4862159;29;20051;-82
2023/06/10 11:19:09;;;;;;;6.28;4.55;;;22.60;98.30;;;;;;4867306;29;20052;-81
2023/06/10 11:22:01;;;;;;;5.63;5.03;;;22.60;98.80;;;;;;4861420;29;20060;-80
2023/06/10 11:24:30;;;;;;;6.97;5.68;;;22.80;98.90;;;;;;4849682;29;20056;-80
2023/06/10 11:27:18;;;;;;;7.40;6.20;;;22.90;98.90;;;;;;4846041;29;22483;-79
2023/06/10 11:30:18;;;;;;;7.85;6.20;;;23.00;96.20;;;;;;4864791;29;20797;-80
2023/06/10 11:32:51;;;;;;;7.05;6.20;;;23.00;96.00;;;;;;4873476;29;20480;-80
2023/06/10 11:35:21;;;;;;;8.20;6.95;;;22.90;96.40;;;;;;4865079;29;20056;-80
2023/06/10 11:37:48;;;;;;;9.40;6.25;;;22.90;97.30;;;;;;4857490;29;20175;-81
2023/06/10 11:40:16;;;;;;;6.82;6.13;;;23.00;98.10;;;;;;4862283;29;20197;-81
2023/06/10 11:42:44;;;;;;;7.82;6.45;;;23.00;97.20;;;;;;4853257;29;20050;-81
2023/06/10 11:45:16;;;;;;;8.02;6.65;;;23.20;96.90;;;;;;4870856;29;20119;-80
2023/06/10 11:47:59;;;;;;;7.13;6.28;;;23.30;97.60;;;;;;4860468;29;22313;-81
2023/06/10 11:50:33;;;;;;;7.35;6.55;;;23.50;97.40;;;;;;4858401;29;20048;-80
2023/06/10 11:53:00;;;;;;;7.22;6.10;;;23.30;95.80;;;;;;4884312;29;20084;-81
2023/06/10 11:55:48;;;;;;;8.05;6.50;;;23.30;94.90;;;;;;4849495;29;20056;-80
2023/06/10 11:58:22;;;;;;;7.00;6.00;;;23.20;96.00;;;;;;4869001;29;20058;-79
2023/06/10 12:00:53;;;;;;;6.97;5.38;;;23.20;96.70;;;;;;4848824;29;20087;-78
2023/06/10 12:03:22;;;;;;;5.30;4.65;;;23.20;97.40;;;;;;4866290;29;20045;-80
2023/06/10 12:06:00;;;;;;;4.80;4.25;;;23.10;97.90;;;;;;4860944;29;22418;-79
2023/06/10 12:08:27;;;;;;;4.68;3.92;;;23.10;98.50;;;;;;4861406;29;20076;-77
2023/06/10 12:10:56;;;;;;;4.78;3.80;;;23.00;98.70;;;;;;4857543;29;20441;-78
2023/06/10 12:13:27;;;;;;;5.25;3.65;;;23.00;98.10;;;;;;4855539;29;20064;-79
2023/06/10 12:15:54;;;;;;;4.15;2.97;;;22.90;97.60;;;;;;4864438;29;20056;-79
2023/06/10 12:18:23;;;;;;;2.90;2.60;;;23.00;97.40;;;;;;4870387;29;20163;-79
2023/06/10 12:20:51;;;;;;;2.53;2.33;;;23.00;95.40;;;;;;4868910;29;20061;-80
2023/06/10 12:23:19;;;;;;;3.38;3.08;;;23.00;95.70;;;;;;4866403;29;20049;-82
2023/06/10 12:25:51;;;;;;;2.78;2.40;;;23.10;94.20;;;;;;4873287;29;20044;-78
2023/06/10 12:28:26;;;;;;;2.63;2.38;;;23.30;95.00;;;;;;4826973;29;20217;-80
2023/06/10 12:31:07;;;;;;;3.13;2.83;;;23.40;94.00;;;;;;4839215;29;20108;-80
2023/06/10 12:33:35;;;;;;;3.38;3.08;;;23.30;93.60;;;;;;4821522;29;20052;-80
2023/06/10 12:36:02;;;;;;;3.85;2.83;;;23.20;94.40;;;;;;4857385;29;20108;-80
2023/06/10 12:38:30;;;;;;;3.03;2.72;;;23.10;94.40;;;;;;4843712;29;20615;-80
2023/06/10 12:41:05;;;;;;;3.13;2.80;;;23.10;95.70;;;;;;4848603;29;20060;-80
2023/06/10 12:43:33;;;;;;;4.55;3.30;;;23.00;95.80;;;;;;4820495;29;20628;-78
2023/06/10 12:46:11;;;;;;;4.40;3.15;;;23.00;96.70;;;;;;4840540;29;20550;-79
2023/06/10 12:48:51;;;;;;;4.00;3.60;;;23.00;97.20;;;;;;4841419;29;20464;-79
2023/06/10 12:51:18;;;;;;;4.88;3.40;;;23.00;97.40;;;;;;4836307;29;20095;-79